Time;durP1;ratioP1;P1;durP2;ratioP2;P2;SDS_P1;SDS_P2;PMS_P1;PMS_P2;Temp;Humidity;BMP_temperature;BMP_pressure;BME280_temperature;BME280_humidity;BME280_pressure;Samples;Min_cycle;Max_cycle;Signal;HPM_P1;HPM_P2
2022/05/18 00:00:07;;;;;;;10.10;5.00;;;17.30;99.90;;;;;;5092556;28;20064;-78
2022/05/18 00:02:35;;;;;;;7.63;5.00;;;17.30;99.90;;;;;;5063266;28;20097;-80
2022/05/18 00:05:02;;;;;;;11.17;5.43;;;17.30;99.90;;;;;;5041800;28;20433;-78
2022/05/18 00:07:27;;;;;;;11.33;5.60;;;17.20;99.90;;;;;;5081074;28;20051;-78
2022/05/18 00:09:53;;;;;;;9.00;5.23;;;17.20;99.90;;;;;;5064655;28;20064;-78
2022/05/18 00:12:19;;;;;;;11.27;5.60;;;17.20;99.90;;;;;;5059058;28;20113;-78
2022/05/18 00:14:46;;;;;;;8.87;4.93;;;17.20;99.90;;;;;;5079499;28;20036;-79
2022/05/18 00:17:12;;;;;;;10.53;5.10;;;17.10;99.90;;;;;;5035821;28;20103;-78
2022/05/18 00:19:37;;;;;;;8.97;5.00;;;17.10;99.90;;;;;;5055055;28;20074;-79
2022/05/18 00:22:04;;;;;;;7.27;5.00;;;17.00;99.90;;;;;;5073562;28;20105;-78
2022/05/18 00:24:30;;;;;;;11.40;5.70;;;17.00;99.90;;;;;;5061348;28;20046;-78
2022/05/18 00:26:56;;;;;;;8.90;6.13;;;17.00;99.90;;;;;;5048910;28;20040;-78
2022/05/18 00:29:23;;;;;;;9.10;6.23;;;17.00;99.90;;;;;;5042853;28;20043;-78
2022/05/18 00:31:50;;;;;;;9.73;6.03;;;17.00;99.90;;;;;;5080558;28;20054;-78
2022/05/18 00:34:16;;;;;;;10.90;5.70;;;16.90;99.90;;;;;;5074377;28;20036;-80
2022/05/18 00:36:42;;;;;;;9.20;6.20;;;16.90;99.90;;;;;;5061931;28;20043;-82
2022/05/18 00:39:08;;;;;;;9.87;6.13;;;16.90;99.90;;;;;;5083979;28;20077;-79
2022/05/18 00:41:35;;;;;;;8.63;6.20;;;16.80;99.90;;;;;;5061800;28;20052;-78
2022/05/18 00:44:01;;;;;;;9.13;6.00;;;16.90;99.90;;;;;;5080371;28;20040;-78
2022/05/18 00:46:27;;;;;;;11.40;6.03;;;16.90;99.90;;;;;;5064283;28;20544;-78
2022/05/18 00:48:54;;;;;;;11.10;6.23;;;16.80;99.90;;;;;;5081588;28;20048;-78
2022/05/18 00:51:26;;;;;;;9.83;6.37;;;16.80;99.90;;;;;;5099079;28;20040;-78
2022/05/18 00:53:56;;;;;;;11.50;6.17;;;16.80;99.90;;;;;;5077338;28;20075;-78
2022/05/18 00:56:27;;;;;;;14.43;6.43;;;16.70;99.90;;;;;;5070487;28;20050;-79
2022/05/18 00:58:58;;;;;;;10.07;6.17;;;16.70;99.90;;;;;;5082133;28;20092;-79
2022/05/18 01:01:24;;;;;;;7.47;5.70;;;16.70;99.90;;;;;;5076912;22;20052;-79
2022/05/18 01:03:54;;;;;;;12.47;6.03;;;16.70;99.90;;;;;;5035952;28;20084;-80
2022/05/18 01:06:27;;;;;;;8.77;5.27;;;16.70;99.90;;;;;;5038554;28;20075;-80
2022/05/18 01:08:59;;;;;;;8.82;5.70;;;16.70;99.90;;;;;;5075183;28;20461;-78
2022/05/18 01:11:25;;;;;;;9.83;6.00;;;16.60;99.90;;;;;;5052101;28;20041;-79
2022/05/18 01:13:51;;;;;;;7.40;5.60;;;16.60;99.90;;;;;;5051941;28;20048;-79
2022/05/18 01:16:19;;;;;;;8.33;6.00;;;16.60;99.90;;;;;;5023930;28;20099;-77
2022/05/18 01:18:45;;;;;;;8.87;5.80;;;16.60;99.90;;;;;;5026094;28;20411;-78
2022/05/18 01:21:13;;;;;;;11.27;5.30;;;16.60;99.90;;;;;;5035720;28;20048;-79
2022/05/18 01:23:48;;;;;;;8.10;5.87;;;16.60;99.90;;;;;;5011762;28;20128;-78
2022/05/18 01:26:18;;;;;;;11.67;6.30;;;16.50;99.90;;;;;;5060519;28;20087;-79
2022/05/18 01:28:51;;;;;;;9.87;5.80;;;16.50;99.90;;;;;;5046000;28;20559;-79
2022/05/18 01:31:17;;;;;;;11.93;6.53;;;16.40;99.90;;;;;;5030998;28;20107;-80
2022/05/18 01:33:43;;;;;;;8.50;6.10;;;16.40;99.90;;;;;;5030996;28;20496;-79
2022/05/18 01:36:09;;;;;;;10.27;6.47;;;16.40;99.90;;;;;;5032459;28;20045;-80
2022/05/18 01:38:36;;;;;;;9.93;6.50;;;16.40;99.90;;;;;;5053464;28;20059;-79
2022/05/18 01:41:08;;;;;;;10.43;6.20;;;16.40;99.90;;;;;;5058315;28;20037;-79
2022/05/18 01:43:37;;;;;;;8.43;5.77;;;16.40;99.90;;;;;;5051653;28;20041;-78
2022/05/18 01:46:06;;;;;;;11.00;5.83;;;16.30;99.90;;;;;;5030045;28;20048;-78
2022/05/18 01:48:35;;;;;;;9.53;5.70;;;16.30;99.90;;;;;;5038672;28;20043;-78
2022/05/18 01:51:02;;;;;;;9.73;6.00;;;16.30;99.90;;;;;;5054157;28;20049;-81
2022/05/18 01:53:30;;;;;;;10.87;5.90;;;16.30;99.90;;;;;;5040451;28;20041;-78
2022/05/18 01:55:56;;;;;;;11.53;6.30;;;16.30;99.90;;;;;;5033055;28;20120;-78
2022/05/18 01:58:23;;;;;;;8.57;5.77;;;16.30;99.90;;;;;;5020641;28;20033;-78
2022/05/18 02:00:50;;;;;;;12.67;5.90;;;16.20;99.90;;;;;;5029848;28;20070;-78
2022/05/18 02:03:18;;;;;;;12.43;5.90;;;16.20;99.90;;;;;;5053070;28;20052;-78
2022/05/18 02:05:44;;;;;;;10.53;5.80;;;16.20;99.90;;;;;;5056396;28;20053;-79
2022/05/18 02:08:11;;;;;;;9.27;5.60;;;16.20;99.90;;;;;;5048980;28;20402;-79
2022/05/18 02:10:38;;;;;;;8.27;5.80;;;16.20;99.90;;;;;;5040384;28;20068;-78
2022/05/18 02:13:04;;;;;;;9.53;5.40;;;16.30;99.90;;;;;;5049733;28;20034;-79
2022/05/18 02:15:30;;;;;;;10.00;6.27;;;16.20;99.90;;;;;;5060187;28;21782;-78
2022/05/18 02:17:56;;;;;;;11.93;5.73;;;16.10;99.90;;;;;;5047093;28;20088;-79
2022/05/18 02:20:23;;;;;;;10.23;6.13;;;16.10;99.90;;;;;;5054100;28;20090;-78
2022/05/18 02:22:51;;;;;;;10.53;5.97;;;16.10;99.90;;;;;;5036385;28;20041;-78
2022/05/18 02:25:17;;;;;;;12.23;6.70;;;16.10;99.90;;;;;;5049615;28;20204;-78
2022/05/18 02:27:43;;;;;;;9.30;6.50;;;16.10;99.90;;;;;;5058179;28;20076;-81
2022/05/18 02:30:10;;;;;;;9.93;6.37;;;16.10;99.90;;;;;;5053717;28;20049;-78
2022/05/18 02:32:36;;;;;;;9.80;5.90;;;16.10;99.90;;;;;;5056503;28;20033;-78
2022/05/18 02:35:04;;;;;;;13.10;6.40;;;16.10;99.90;;;;;;5041162;28;20056;-78
2022/05/18 02:37:31;;;;;;;11.90;6.67;;;16.10;99.90;;;;;;5050092;28;20127;-78
2022/05/18 02:39:57;;;;;;;8.47;5.83;;;16.10;99.90;;;;;;5054432;28;20048;-79
2022/05/18 02:42:23;;;;;;;12.17;6.70;;;16.10;99.90;;;;;;5050420;28;20064;-80
2022/05/18 02:44:48;;;;;;;8.97;6.07;;;16.10;99.90;;;;;;5054959;28;20045;-80
2022/05/18 02:47:15;;;;;;;12.10;6.63;;;16.10;99.90;;;;;;5052260;28;20052;-82
2022/05/18 02:49:41;;;;;;;10.77;6.60;;;16.10;99.90;;;;;;5043596;28;20049;-80
2022/05/18 02:52:07;;;;;;;8.57;6.33;;;16.10;99.90;;;;;;5051563;28;20040;-78
2022/05/18 02:57:19;;;;;;;9.97;6.63;;;16.10;99.90;;;;;;5060389;28;20036;-78
2022/05/18 02:59:45;;;;;;;10.60;6.97;;;16.00;99.90;;;;;;5042481;28;20049;-78
2022/05/18 03:02:10;;;;;;;9.70;6.80;;;16.00;99.90;;;;;;5054478;28;20035;-78
2022/05/18 03:04:36;;;;;;;12.80;6.37;;;16.00;99.90;;;;;;5051978;28;20077;-80
2022/05/18 03:07:03;;;;;;;13.47;6.60;;;16.00;99.90;;;;;;5048661;28;20049;-79
2022/05/18 03:09:28;;;;;;;14.13;7.00;;;16.00;99.90;;;;;;5052703;28;20048;-78
2022/05/18 03:11:56;;;;;;;11.37;6.67;;;16.10;99.90;;;;;;5050906;28;20040;-79
2022/05/18 03:14:22;;;;;;;11.30;7.27;;;16.00;99.90;;;;;;5049631;28;20045;-78
2022/05/18 03:16:48;;;;;;;10.63;6.93;;;16.00;99.90;;;;;;5046756;28;20526;-79
2022/05/18 03:19:14;;;;;;;10.90;6.47;;;16.00;99.90;;;;;;5051682;28;20064;-79
2022/05/18 03:24:24;;;;;;;11.00;6.67;;;15.90;99.90;;;;;;5050195;28;20033;-78
2022/05/18 03:26:50;;;;;;;10.57;7.30;;;15.90;99.90;;;;;;5035705;28;20109;-79
2022/05/18 03:29:18;;;;;;;9.57;6.70;;;15.90;99.90;;;;;;5032816;28;20045;-82
2022/05/18 03:31:44;;;;;;;14.97;7.23;;;15.80;99.90;;;;;;5057486;28;20099;-79
2022/05/18 03:34:10;;;;;;;13.60;7.70;;;15.80;99.90;;;;;;5044311;28;20072;-78
2022/05/18 03:36:36;;;;;;;10.17;7.40;;;15.80;99.90;;;;;;5050570;28;20037;-78
2022/05/18 03:39:02;;;;;;;10.13;7.70;;;15.80;99.90;;;;;;5053630;28;20099;-79
2022/05/18 03:41:28;;;;;;;10.20;7.00;;;15.70;99.90;;;;;;5048397;28;20064;-78
2022/05/18 03:43:54;;;;;;;11.67;7.70;;;15.70;99.90;;;;;;5059046;28;20041;-78
2022/05/18 03:46:21;;;;;;;11.47;7.17;;;15.60;99.90;;;;;;5048705;28;20079;-78
2022/05/18 03:48:47;;;;;;;10.10;7.37;;;15.60;99.90;;;;;;5050725;28;20101;-78
2022/05/18 03:51:16;;;;;;;8.93;6.63;;;15.60;99.90;;;;;;5054490;28;20075;-81
2022/05/18 03:53:42;;;;;;;10.77;8.07;;;15.50;99.90;;;;;;5054986;28;20069;-78
2022/05/18 03:56:08;;;;;;;10.67;6.37;;;15.50;99.90;;;;;;5053616;28;20041;-79
2022/05/18 03:58:34;;;;;;;11.47;6.83;;;15.40;99.90;;;;;;5047437;28;20052;-78
2022/05/18 04:01:01;;;;;;;12.30;6.80;;;15.40;99.90;;;;;;5054488;28;20044;-78
2022/05/18 04:03:29;;;;;;;10.33;6.97;;;15.40;99.90;;;;;;5047987;28;20049;-80
2022/05/18 04:05:55;;;;;;;11.27;7.43;;;15.30;99.90;;;;;;5032140;28;20041;-79
2022/05/18 04:08:22;;;;;;;11.17;8.20;;;15.30;99.90;;;;;;5052484;28;20093;-81
2022/05/18 04:10:47;;;;;;;11.73;8.23;;;15.30;99.90;;;;;;5015589;28;20627;-78
2022/05/18 04:13:15;;;;;;;10.90;7.43;;;15.30;99.90;;;;;;5049144;28;20041;-79
2022/05/18 04:15:41;;;;;;;12.80;8.57;;;15.20;99.90;;;;;;5041268;28;20498;-79
2022/05/18 04:18:07;;;;;;;9.40;6.87;;;15.20;99.90;;;;;;5032382;28;20082;-78
2022/05/18 04:20:34;;;;;;;14.53;7.83;;;15.20;99.90;;;;;;5031521;28;20121;-82
2022/05/18 04:23:01;;;;;;;12.57;8.00;;;15.30;99.90;;;;;;5037428;28;20053;-78
2022/05/18 04:25:28;;;;;;;10.93;7.90;;;15.30;99.90;;;;;;5051425;28;20029;-79
2022/05/18 04:27:55;;;;;;;12.80;8.13;;;15.30;99.90;;;;;;5026233;28;20056;-78
2022/05/18 04:30:24;;;;;;;11.53;9.17;;;15.40;99.90;;;;;;5050247;28;20514;-78
2022/05/18 04:32:50;;;;;;;14.57;9.13;;;15.40;99.90;;;;;;5042501;28;20041;-81
2022/05/18 04:35:19;;;;;;;15.47;8.47;;;15.40;99.90;;;;;;5036861;28;20044;-79
2022/05/18 04:37:46;;;;;;;10.80;8.60;;;15.40;99.90;;;;;;5041852;28;20052;-78
2022/05/18 04:40:12;;;;;;;12.77;8.17;;;15.50;99.90;;;;;;5017497;28;20480;-80
2022/05/18 04:42:38;;;;;;;14.57;8.40;;;15.50;99.90;;;;;;5056707;28;20033;-79
2022/05/18 04:45:06;;;;;;;10.93;8.30;;;15.60;99.90;;;;;;5046347;28;20053;-80
2022/05/18 04:47:32;;;;;;;13.57;8.70;;;15.50;99.90;;;;;;5039757;28;20045;-80
2022/05/18 04:49:58;;;;;;;15.17;9.10;;;15.60;99.90;;;;;;5054563;28;20048;-79
2022/05/18 04:52:24;;;;;;;11.33;9.00;;;15.60;99.90;;;;;;5027177;28;20045;-78
2022/05/18 04:54:51;;;;;;;10.57;8.33;;;15.60;99.90;;;;;;5049452;28;20037;-78
2022/05/18 04:57:18;;;;;;;13.30;8.57;;;15.70;99.90;;;;;;5046474;28;20048;-78
2022/05/18 04:59:45;;;;;;;14.43;9.07;;;15.70;99.90;;;;;;5032880;28;20047;-78
2022/05/18 05:02:11;;;;;;;13.70;9.70;;;15.70;99.90;;;;;;5026056;28;20057;-78
2022/05/18 05:04:37;;;;;;;14.50;9.63;;;15.80;99.90;;;;;;5035972;28;20036;-77
2022/05/18 05:07:03;;;;;;;12.37;9.27;;;15.80;99.90;;;;;;5050040;28;20045;-79
2022/05/18 05:09:29;;;;;;;18.33;9.40;;;15.90;99.90;;;;;;5042598;28;20044;-79
2022/05/18 05:11:56;;;;;;;13.20;9.43;;;16.00;99.90;;;;;;5059987;28;20067;-80
2022/05/18 05:14:23;;;;;;;11.57;9.23;;;16.00;99.90;;;;;;5047725;28;20049;-78
2022/05/18 05:16:50;;;;;;;12.60;9.40;;;16.10;99.90;;;;;;5052838;28;20045;-78
2022/05/18 05:19:16;;;;;;;12.50;9.73;;;16.10;99.90;;;;;;5013530;28;20056;-79
2022/05/18 05:21:42;;;;;;;14.33;10.20;;;16.20;99.90;;;;;;5049203;28;20032;-79
2022/05/18 05:24:09;;;;;;;12.87;9.93;;;16.30;99.90;;;;;;5028468;28;20037;-79
2022/05/18 05:26:35;;;;;;;13.00;9.47;;;16.30;99.90;;;;;;5027460;28;20072;-77
2022/05/18 05:29:02;;;;;;;14.60;9.60;;;16.40;99.90;;;;;;5039555;28;20037;-77
2022/05/18 05:31:28;;;;;;;14.57;10.20;;;16.50;99.90;;;;;;5029777;28;20084;-78
2022/05/18 05:33:54;;;;;;;15.07;10.33;;;16.50;99.90;;;;;;5048535;28;20095;-79
2022/05/18 05:36:20;;;;;;;15.93;9.80;;;16.60;99.90;;;;;;5052525;28;20041;-81
2022/05/18 05:38:46;;;;;;;16.63;10.47;;;16.70;99.90;;;;;;5053712;28;20049;-78
2022/05/18 05:41:12;;;;;;;16.00;9.97;;;16.80;99.90;;;;;;5036955;28;20064;-82
2022/05/18 05:43:37;;;;;;;14.60;10.43;;;16.80;99.90;;;;;;5050852;28;20036;-77
2022/05/18 05:46:06;;;;;;;13.07;10.53;;;16.90;99.90;;;;;;5049874;28;20049;-77
2022/05/18 05:48:34;;;;;;;13.47;9.67;;;17.00;99.90;;;;;;5059322;28;20041;-79
2022/05/18 05:51:00;;;;;;;15.07;9.97;;;17.10;99.90;;;;;;5042331;28;20080;-77
2022/05/18 05:53:27;;;;;;;12.63;9.40;;;17.40;99.90;;;;;;5055817;28;20041;-78
2022/05/18 05:55:53;;;;;;;10.83;9.37;;;17.70;99.90;;;;;;5052748;28;20449;-78
2022/05/18 05:58:20;;;;;;;12.43;9.53;;;17.80;99.90;;;;;;5038205;28;20036;-78
2022/05/18 06:00:46;;;;;;;13.87;10.00;;;17.90;99.90;;;;;;5060055;28;20049;-81
2022/05/18 06:03:14;;;;;;;14.30;9.77;;;17.90;99.90;;;;;;5047328;28;20033;-80
2022/05/18 06:05:40;;;;;;;15.73;9.93;;;17.90;99.90;;;;;;5051303;28;20414;-78
2022/05/18 06:08:06;;;;;;;15.00;10.03;;;18.00;99.90;;;;;;5058387;28;20041;-77
2022/05/18 06:10:32;;;;;;;13.13;9.53;;;18.00;99.90;;;;;;5037674;28;20068;-78
2022/05/18 06:12:58;;;;;;;11.13;9.23;;;18.00;99.90;;;;;;5039000;28;20040;-77
2022/05/18 06:15:24;;;;;;;15.37;10.23;;;18.00;99.90;;;;;;5062838;28;20049;-78
2022/05/18 06:17:50;;;;;;;14.60;9.50;;;18.00;99.90;;;;;;5060544;28;20037;-78
2022/05/18 06:20:17;;;;;;;13.60;10.70;;;18.10;99.90;;;;;;5018735;28;20041;-77
2022/05/18 06:22:43;;;;;;;13.30;9.80;;;18.20;99.90;;;;;;5034905;28;20041;-82
2022/05/18 06:25:11;;;;;;;15.33;9.63;;;18.20;99.90;;;;;;5039671;28;20044;-79
2022/05/18 06:27:37;;;;;;;13.97;10.13;;;18.30;99.90;;;;;;5048328;28;20045;-80
2022/05/18 06:30:03;;;;;;;18.13;10.67;;;18.40;99.90;;;;;;5048131;28;20115;-77
2022/05/18 06:32:29;;;;;;;11.70;9.57;;;18.50;99.90;;;;;;5055063;28;20044;-79
2022/05/18 06:34:55;;;;;;;13.03;9.47;;;18.60;99.90;;;;;;5050111;28;20449;-76
2022/05/18 06:37:22;;;;;;;16.80;10.13;;;18.60;99.90;;;;;;5054507;28;20636;-77
2022/05/18 06:39:48;;;;;;;12.63;10.17;;;18.70;99.90;;;;;;5022333;28;20041;-78
2022/05/18 06:42:13;;;;;;;12.47;9.93;;;18.70;99.90;;;;;;5056915;28;20095;-79
2022/05/18 06:44:42;;;;;;;16.20;10.27;;;18.90;99.90;;;;;;5016599;28;20076;-80
2022/05/18 06:47:08;;;;;;;13.73;10.77;;;19.00;99.90;;;;;;5028748;28;20053;-78
2022/05/18 06:49:34;;;;;;;13.80;10.50;;;19.00;99.90;;;;;;5029873;28;20049;-80
2022/05/18 06:52:00;;;;;;;15.13;10.23;;;19.10;99.90;;;;;;5004389;28;20477;-81
2022/05/18 06:54:27;;;;;;;14.90;9.90;;;19.20;99.90;;;;;;5051722;28;20065;-80
2022/05/18 06:56:52;;;;;;;11.10;9.90;;;19.30;99.90;;;;;;5045015;28;20038;-78
2022/05/18 06:59:20;;;;;;;17.37;10.20;;;19.60;99.90;;;;;;5039637;28;20047;-79
2022/05/18 07:01:45;;;;;;;12.13;9.57;;;19.70;99.90;;;;;;5057502;28;20396;-78
2022/05/18 07:04:11;;;;;;;11.87;9.47;;;19.80;99.90;;;;;;5024811;28;20056;-83
2022/05/18 07:06:39;;;;;;;13.37;9.93;;;19.90;99.90;;;;;;5029186;28;20090;-77
2022/05/18 07:09:08;;;;;;;12.83;9.47;;;19.90;99.90;;;;;;5039868;28;20064;-80
2022/05/18 07:11:38;;;;;;;12.87;9.53;;;20.00;99.90;;;;;;5050548;28;20487;-81
2022/05/18 07:14:05;;;;;;;15.27;10.03;;;20.00;99.90;;;;;;5047880;28;20045;-78
2022/05/18 07:16:32;;;;;;;12.50;9.87;;;20.10;99.90;;;;;;5049207;28;20075;-78
2022/05/18 07:18:58;;;;;;;16.70;10.40;;;20.20;99.90;;;;;;5044875;28;20071;-78
2022/05/18 07:21:25;;;;;;;13.60;9.90;;;20.30;99.90;;;;;;5040378;28;20458;-77
2022/05/18 07:23:52;;;;;;;15.67;9.80;;;20.40;99.90;;;;;;5040370;28;20513;-79
2022/05/18 07:26:19;;;;;;;13.53;9.07;;;20.50;99.90;;;;;;5044208;28;20110;-78
2022/05/18 07:28:47;;;;;;;13.13;9.67;;;20.50;99.90;;;;;;5054948;28;20052;-80
2022/05/18 07:31:14;;;;;;;12.10;9.00;;;20.60;99.90;;;;;;5037758;28;20140;-78
2022/05/18 07:33:40;;;;;;;12.23;9.17;;;20.70;99.90;;;;;;5043828;28;20148;-79
2022/05/18 07:36:06;;;;;;;14.90;8.93;;;20.70;99.90;;;;;;5060700;28;20041;-79
2022/05/18 07:38:34;;;;;;;11.90;9.10;;;20.90;99.90;;;;;;5027215;28;20392;-78
2022/05/18 07:41:00;;;;;;;12.27;8.97;;;21.00;99.90;;;;;;5060598;28;20044;-78
2022/05/18 07:43:27;;;;;;;14.87;9.27;;;21.10;99.90;;;;;;5037979;28;20559;-80
2022/05/18 07:45:55;;;;;;;11.73;8.80;;;21.20;99.90;;;;;;5042709;28;20057;-80
2022/05/18 07:48:21;;;;;;;13.17;8.23;;;21.30;99.90;;;;;;5054997;28;20044;-78
2022/05/18 07:50:48;;;;;;;11.67;8.27;;;21.50;99.90;;;;;;5045475;28;20049;-79
2022/05/18 07:53:14;;;;;;;10.27;8.10;;;21.60;99.90;;;;;;5050680;28;20473;-81
2022/05/18 07:55:40;;;;;;;11.47;8.10;;;21.70;99.90;;;;;;5051233;28;20190;-79
2022/05/18 07:58:09;;;;;;;13.20;8.67;;;21.80;99.90;;;;;;5044388;28;20056;-79
2022/05/18 08:00:34;;;;;;;13.10;8.53;;;21.90;99.90;;;;;;5034634;28;20059;-79
2022/05/18 08:03:02;;;;;;;11.17;7.80;;;22.10;99.90;;;;;;5042330;28;20075;-78
2022/05/18 08:05:30;;;;;;;11.03;7.67;;;22.20;99.90;;;;;;5054192;28;20037;-77
2022/05/18 08:07:56;;;;;;;10.87;7.83;;;22.30;99.90;;;;;;5025448;28;20059;-81
2022/05/18 08:15:53;;;;;;;12.05;6.90;;;22.60;99.90;;;;;;5037123;28;20044;-82
2022/05/18 08:18:20;;;;;;;10.02;7.72;;;22.80;99.90;;;;;;5032625;28;20045;-78
2022/05/18 08:20:46;;;;;;;11.10;7.07;;;23.00;99.90;;;;;;5044186;28;20061;-79
2022/05/18 08:23:12;;;;;;;14.23;7.03;;;23.00;99.90;;;;;;5028051;28;20058;-79
2022/05/18 08:25:38;;;;;;;10.07;7.07;;;23.10;99.90;;;;;;5044168;28;20041;-80
2022/05/18 08:28:05;;;;;;;11.68;6.88;;;23.20;99.90;;;;;;5048593;28;20163;-82
2022/05/18 08:30:31;;;;;;;12.75;7.50;;;23.40;99.90;;;;;;5023085;28;20406;-81
2022/05/18 08:32:57;;;;;;;10.02;6.40;;;23.60;99.90;;;;;;5020172;28;20480;-80
2022/05/18 08:35:25;;;;;;;12.32;7.03;;;23.70;99.90;;;;;;5011306;28;20048;-78
2022/05/18 08:37:51;;;;;;;13.07;7.15;;;23.80;99.90;;;;;;5040935;28;20053;-79
2022/05/18 08:40:38;;;;;;;9.93;7.22;;;23.90;99.90;;;;;;5041975;28;20048;-78
2022/05/18 08:43:06;;;;;;;8.38;6.97;;;24.00;99.90;;;;;;5040456;28;21290;-78
2022/05/18 08:45:34;;;;;;;12.55;7.55;;;24.10;99.90;;;;;;5046988;28;20033;-78
2022/05/18 08:48:09;;;;;;;12.52;6.75;;;24.30;99.90;;;;;;5018018;28;20076;-78
2022/05/18 08:50:37;;;;;;;12.18;7.32;;;24.40;99.90;;;;;;5004635;28;20068;-78
2022/05/18 08:53:20;;;;;;;11.40;6.93;;;24.60;99.90;;;;;;5034059;28;20580;-78
2022/05/18 08:55:58;;;;;;;10.88;6.95;;;24.80;99.90;;;;;;5018025;28;20556;-78
2022/05/18 08:58:35;;;;;;;8.60;6.40;;;25.00;99.90;;;;;;5035380;28;20049;-78
2022/05/18 09:01:06;;;;;;;9.20;5.65;;;25.20;99.90;;;;;;5011177;28;20049;-82
2022/05/18 09:03:37;;;;;;;11.20;6.20;;;25.30;99.90;;;;;;5038188;28;20060;-78
2022/05/18 09:06:11;;;;;;;10.50;6.72;;;25.50;99.90;;;;;;5036068;28;20052;-83
2022/05/18 09:08:40;;;;;;;10.40;7.13;;;25.70;99.90;;;;;;5044271;28;20041;-79
2022/05/18 09:11:08;;;;;;;12.02;7.28;;;25.80;99.90;;;;;;5072108;28;20178;-78
2022/05/18 09:13:34;;;;;;;10.40;6.80;;;26.00;99.30;;;;;;5019823;28;20049;-79
2022/05/18 09:16:10;;;;;;;11.05;7.70;;;25.90;99.20;;;;;;5008538;28;20396;-81
2022/05/18 09:18:42;;;;;;;8.75;6.50;;;26.00;99.30;;;;;;5043727;28;20067;-81
2022/05/18 09:21:20;;;;;;;14.95;7.63;;;26.10;99.90;;;;;;5022656;28;20034;-79
2022/05/18 09:23:58;;;;;;;10.13;6.50;;;26.30;99.10;;;;;;5045949;28;20059;-79
2022/05/18 09:26:55;;;;;;;11.77;6.30;;;26.50;99.00;;;;;;5034174;28;20061;-80
2022/05/18 09:29:30;;;;;;;8.50;5.78;;;26.80;99.10;;;;;;5030100;28;20064;-79
2022/05/18 09:32:13;;;;;;;10.23;5.88;;;26.90;97.50;;;;;;5046969;28;20495;-78
2022/05/18 09:35:18;;;;;;;11.25;5.90;;;27.10;98.30;;;;;;5040411;28;20499;-80
2022/05/18 09:37:48;;;;;;;;;;;27.40;97.40;;;;;;4973066;28;20452;-82
2022/05/18 09:40:18;;;;;;;10.55;5.93;;;27.60;97.40;;;;;;5025377;28;19925;-85
2022/05/18 09:42:51;;;;;;;7.53;6.05;;;27.80;96.10;;;;;;5026198;28;20041;-77
2022/05/18 09:45:22;;;;;;;9.25;6.03;;;27.90;94.00;;;;;;5032476;28;20211;-79
2022/05/18 09:47:51;;;;;;;8.65;6.10;;;28.00;94.90;;;;;;5040366;28;20077;-79
2022/05/18 09:50:17;;;;;;;9.48;6.43;;;28.20;94.80;;;;;;5016346;28;20075;-80
2022/05/18 09:52:47;;;;;;;9.50;7.03;;;28.60;93.70;;;;;;5031871;28;20530;-78
2022/05/18 09:55:17;;;;;;;12.98;7.75;;;28.80;93.50;;;;;;5019487;28;20048;-79
2022/05/18 09:57:49;;;;;;;9.57;6.55;;;29.10;92.10;;;;;;5049967;28;20051;-79
2022/05/18 10:00:18;;;;;;;15.77;7.22;;;29.10;92.20;;;;;;5018652;28;20053;-80
2022/05/18 10:08:23;;;;;;;11.13;7.07;;;29.90;91.90;;;;;;5053166;28;20045;-78
2022/05/18 10:10:56;;;;;;;9.20;6.40;;;30.00;90.70;;;;;;5040292;28;20057;-81
2022/05/18 10:13:25;;;;;;;13.98;6.70;;;29.90;91.10;;;;;;5049460;28;20044;-80
2022/05/18 10:16:03;;;;;;;14.00;5.63;;;30.00;90.00;;;;;;5045923;28;20132;-82
2022/05/18 10:18:41;;;;;;;11.02;6.25;;;30.10;90.90;;;;;;5011635;28;20043;-81
2022/05/18 10:21:18;;;;;;;8.10;6.22;;;30.10;88.40;;;;;;5034158;28;20119;-79
2022/05/18 10:23:53;;;;;;;8.95;6.35;;;30.10;88.60;;;;;;5022262;28;20167;-80
2022/05/18 10:26:23;;;;;;;11.45;5.95;;;30.10;86.90;;;;;;5046593;28;20068;-79
2022/05/18 10:28:55;;;;;;;7.75;5.40;;;30.20;86.70;;;;;;5020406;28;20041;-80
2022/05/18 10:31:27;;;;;;;9.65;6.80;;;30.40;88.20;;;;;;5035862;28;20041;-82
2022/05/18 10:34:12;;;;;;;12.43;7.20;;;30.50;88.90;;;;;;5064741;28;20083;-79
2022/05/18 10:36:42;;;;;;;11.90;7.35;;;30.50;89.20;;;;;;5042566;28;20047;-80
2022/05/18 10:39:10;;;;;;;9.45;6.50;;;30.70;87.50;;;;;;5050925;28;20410;-80
2022/05/18 10:41:40;;;;;;;9.55;7.22;;;30.90;89.20;;;;;;5033975;28;20056;-78
2022/05/18 10:44:13;;;;;;;13.88;8.30;;;31.00;85.20;;;;;;5029635;28;20033;-81
2022/05/18 10:46:41;;;;;;;10.38;7.80;;;30.90;83.40;;;;;;5029720;28;20114;-80
2022/05/18 10:49:13;;;;;;;12.18;8.18;;;30.70;85.10;;;;;;5022549;28;20041;-79
2022/05/18 10:51:45;;;;;;;11.18;8.23;;;30.70;84.60;;;;;;5028670;28;20104;-80
2022/05/18 10:54:16;;;;;;;11.43;8.15;;;30.80;87.90;;;;;;5020790;28;20474;-78
2022/05/18 10:56:43;;;;;;;11.80;7.47;;;30.90;86.20;;;;;;5051069;28;20065;-77
2022/05/18 10:59:22;;;;;;;12.43;8.57;;;30.90;86.00;;;;;;5050760;28;20080;-78
2022/05/18 11:01:54;;;;;;;11.80;8.00;;;31.00;83.10;;;;;;5049085;28;20075;-80
2022/05/18 11:04:26;;;;;;;9.70;6.63;;;30.90;82.20;;;;;;5048150;28;20062;-79
2022/05/18 11:06:53;;;;;;;11.97;7.47;;;30.80;81.70;;;;;;5047516;28;20102;-79
2022/05/18 11:09:30;;;;;;;8.32;6.45;;;31.10;78.10;;;;;;5031722;28;20124;-83
2022/05/18 11:12:01;;;;;;;19.45;6.97;;;31.10;78.60;;;;;;5046897;28;20104;-81
2022/05/18 11:14:45;;;;;;;13.23;6.75;;;31.00;77.70;;;;;;5034545;28;20041;-83
2022/05/18 11:17:31;;;;;;;12.98;5.60;;;31.00;77.90;;;;;;5050374;28;20045;-78
2022/05/18 11:20:05;;;;;;;10.38;5.70;;;30.90;76.20;;;;;;5032201;28;20033;-79
2022/05/18 11:22:37;;;;;;;10.45;5.80;;;30.80;75.00;;;;;;5053184;28;20103;-84
2022/05/18 11:25:17;;;;;;;8.52;3.85;;;30.60;74.30;;;;;;5049502;28;20414;-81
2022/05/18 11:27:46;;;;;;;6.80;4.18;;;30.80;75.30;;;;;;5049865;28;20056;-79
2022/05/18 11:30:17;;;;;;;9.30;3.90;;;30.80;74.80;;;;;;5048167;28;20490;-78
2022/05/18 11:32:57;;;;;;;6.07;3.90;;;31.00;71.70;;;;;;5050118;28;20055;-76
2022/05/18 11:35:40;;;;;;;8.00;4.95;;;31.10;73.10;;;;;;5042946;28;20099;-77
2022/05/18 11:38:30;;;;;;;11.90;6.80;;;31.30;72.30;;;;;;5053509;28;20127;-78
2022/05/18 11:41:09;;;;;;;12.82;5.32;;;31.40;71.90;;;;;;5043940;28;20049;-78
2022/05/18 11:43:46;;;;;;;9.52;5.68;;;31.20;71.40;;;;;;5047540;28;20041;-79
2022/05/18 11:46:33;;;;;;;10.25;6.68;;;31.10;70.00;;;;;;5041063;28;20071;-84
2022/05/18 11:49:09;;;;;;;10.32;6.90;;;30.80;71.00;;;;;;5049268;28;20118;-78
2022/05/18 11:51:47;;;;;;;11.05;7.13;;;30.80;72.50;;;;;;5042134;28;20044;-78
2022/05/18 11:54:27;;;;;;;14.27;7.10;;;30.90;71.90;;;;;;5049083;28;20052;-78
2022/05/18 11:57:02;;;;;;;14.35;7.72;;;30.80;73.10;;;;;;5031354;28;20041;-81
2022/05/18 11:59:56;;;;;;;11.27;7.72;;;30.60;75.50;;;;;;5048230;28;20106;-79
2022/05/18 12:02:40;;;;;;;10.70;7.15;;;30.80;75.90;;;;;;5052790;28;20486;-78
2022/05/18 12:05:38;;;;;;;9.65;7.10;;;30.60;78.70;;;;;;5026185;28;20041;-77
2022/05/18 12:08:30;;;;;;;13.75;7.70;;;30.60;77.20;;;;;;5051494;28;20056;-77
2022/05/18 12:11:05;;;;;;;17.15;7.60;;;30.40;77.20;;;;;;5012844;28;20068;-80
2022/05/18 12:13:41;;;;;;;9.77;5.65;;;30.00;78.30;;;;;;5050708;28;20104;-77
2022/05/18 12:16:14;;;;;;;8.52;4.60;;;29.90;78.90;;;;;;5029296;28;20132;-79
2022/05/18 12:18:44;;;;;;;6.38;3.47;;;29.60;79.70;;;;;;5036445;28;20057;-79
2022/05/18 12:21:15;;;;;;;9.35;5.75;;;29.30;80.50;;;;;;5042521;28;20045;-77
2022/05/18 12:23:45;;;;;;;8.75;5.40;;;29.10;81.00;;;;;;5016883;28;20041;-78
2022/05/18 12:26:13;;;;;;;7.78;4.90;;;28.90;82.30;;;;;;5049252;28;20036;-82
2022/05/18 12:28:42;;;;;;;9.45;4.57;;;28.70;84.80;;;;;;5043692;28;20049;-77
2022/05/18 12:31:08;;;;;;;13.35;4.65;;;28.70;87.40;;;;;;5051276;28;20049;-77
2022/05/18 12:33:42;;;;;;;8.43;3.63;;;28.60;86.70;;;;;;5029100;28;20414;-78
2022/05/18 12:36:15;;;;;;;7.85;3.42;;;28.50;87.60;;;;;;5053633;28;20084;-81
2022/05/18 12:38:53;;;;;;;5.65;3.35;;;28.40;87.90;;;;;;5043297;28;20136;-80
2022/05/18 12:41:23;;;;;;;6.05;3.15;;;28.40;88.90;;;;;;5052183;28;20044;-79
2022/05/18 12:44:01;;;;;;;6.28;3.50;;;28.40;88.90;;;;;;5030994;28;20130;-77
2022/05/18 12:46:33;;;;;;;14.88;3.95;;;28.20;90.00;;;;;;5038874;28;20521;-78
2022/05/18 12:49:01;;;;;;;6.95;4.05;;;28.10;90.60;;;;;;5044047;28;20037;-77
2022/05/18 12:51:39;;;;;;;10.48;5.00;;;28.00;91.00;;;;;;5029503;28;20041;-78
2022/05/18 12:54:26;;;;;;;19.02;6.47;;;27.90;92.10;;;;;;5036945;28;20550;-78
2022/05/18 12:57:11;;;;;;;10.00;5.93;;;28.00;91.50;;;;;;5025111;28;20053;-77
2022/05/18 13:00:11;;;;;;;11.60;5.88;;;28.10;92.00;;;;;;5019120;28;20061;-77
2022/05/18 13:02:42;;;;;;;9.07;5.80;;;28.50;92.20;;;;;;5041188;28;20662;-79
2022/05/18 13:05:33;;;;;;;10.25;6.88;;;28.70;91.60;;;;;;5058441;28;20068;-79